Terminal Aerodrome Forecast
Issued by NWS

Current Version | Previous Version | Text Only | Print | Product List | Glossary On
Versions: 1 2 3 4 5 6 7 8 9 10 11 12 13 14 15 16 17 18 19 20 21 22 23 24 25 26 27 28 29 30 31 32 33
000 FTUS41 KOKX 241727 TAFHPN TAF KHPN 241727Z 2418/2518 30014G22KT P6SM FEW050 FM242300 29010KT P6SM FEW050 FM250600 VRB04KT P6SM SCT070 FM251500 28008KT P6SM SCT070 AMD NOT SKED=

USA.gov is the U.S. government's official web portal to all federal, state and local government web resources and services.